Time;durP1;ratioP1;P1;durP2;ratioP2;P2;SDS_P1;SDS_P2;PMS_P1;PMS_P2;Temp;Humidity;BMP_temperature;BMP_pressure;BME280_temperature;BME280_humidity;BME280_pressure;Samples;Min_cycle;Max_cycle;Signal;HPM_P1;HPM_P2
2021/08/01 00:01:09;;;;;;;3.67;2.55;;;;;;;;;;5010976;28;20053;-68
2021/08/01 00:03:37;;;;;;;3.50;2.20;;;;;;;;;;5013003;28;20068;-68
2021/08/01 00:06:25;;;;;;;3.75;2.65;;;;;;;;;;4986405;28;20477;-68
2021/08/01 00:08:54;;;;;;;4.72;2.65;;;;;;;;;;5013211;28;20054;-69
2021/08/01 00:11:22;;;;;;;5.28;2.22;;;;;;;;;;5006347;28;20077;-67
2021/08/01 00:13:51;;;;;;;3.83;2.13;;;;;;;;;;5011667;28;20111;-70
2021/08/01 00:16:19;;;;;;;4.45;2.40;;;;;;;;;;5011753;28;20065;-68
2021/08/01 00:18:47;;;;;;;4.75;2.40;;;;;;;;;;5011304;28;20482;-70
2021/08/01 00:21:16;;;;;;;4.45;2.20;;;;;;;;;;5009783;28;20136;-67
2021/08/01 00:23:45;;;;;;;4.22;2.38;;;;;;;;;;5012769;28;20050;-67
2021/08/01 00:26:13;;;;;;;6.13;2.60;;;;;;;;;;5003085;28;20137;-69
2021/08/01 00:28:42;;;;;;;4.15;2.08;;;;;;;;;;5002015;28;20181;-69
2021/08/01 00:31:10;;;;;;;3.10;2.00;;;;;;;;;;5011760;28;20054;-71
2021/08/01 00:33:38;;;;;;;3.50;2.30;;;;;;;;;;5012461;28;20056;-68
2021/08/01 00:36:07;;;;;;;4.47;2.65;;;;;;;;;;5009955;28;20510;-68
2021/08/01 00:38:35;;;;;;;8.02;2.35;;;;;;;;;;5012545;28;20138;-69
2021/08/01 00:41:05;;;;;;;7.80;2.53;;;;;;;;;;5011546;28;20141;-69
2021/08/01 00:43:34;;;;;;;5.13;2.20;;;;;;;;;;5012242;28;20501;-70
2021/08/01 00:46:02;;;;;;;7.28;2.72;;;;;;;;;;5008605;28;20085;-69
2021/08/01 00:48:30;;;;;;;4.30;2.28;;;;;;;;;;5011966;28;20061;-71
2021/08/01 00:50:59;;;;;;;4.70;2.25;;;;;;;;;;5013308;28;20084;-69
2021/08/01 00:53:27;;;;;;;5.80;2.50;;;;;;;;;;5012798;28;20060;-69
2021/08/01 00:55:55;;;;;;;4.28;2.10;;;;;;;;;;5003681;28;20060;-69
2021/08/01 00:58:25;;;;;;;6.97;2.30;;;;;;;;;;5006251;28;20401;-69
2021/08/01 01:01:05;;;;;;;5.63;2.22;;;;;;;;;;5005515;28;20093;-69
2021/08/01 01:03:39;;;;;;;5.72;2.78;;;;;;;;;;5034825;23;20065;-59
2021/08/01 01:06:10;;;;;;;5.88;2.30;;;;;;;;;;5030966;28;20127;-59
2021/08/01 01:08:42;;;;;;;3.85;2.08;;;;;;;;;;5031509;28;20485;-60
2021/08/01 01:11:13;;;;;;;5.93;1.95;;;;;;;;;;5031571;28;20584;-58
2021/08/01 01:13:46;;;;;;;6.65;2.10;;;;;;;;;;5031793;28;20069;-59
2021/08/01 01:16:15;;;;;;;4.05;2.13;;;;;;;;;;5031502;28;20049;-58
2021/08/01 01:18:47;;;;;;;4.63;2.47;;;;;;;;;;5031881;28;20049;-59
2021/08/01 01:21:24;;;;;;;3.97;2.25;;;;;;;;;;5032330;28;20489;-59
2021/08/01 01:23:55;;;;;;;6.30;2.22;;;;;;;;;;5030594;28;20045;-59
2021/08/01 01:26:28;;;;;;;4.47;2.53;;;;;;;;;;5031122;28;20081;-59
2021/08/01 01:29:05;;;;;;;5.45;2.15;;;;;;;;;;5031161;28;20124;-59
2021/08/01 01:31:37;;;;;;;4.95;2.53;;;;;;;;;;5031462;28;20057;-59
2021/08/01 01:34:10;;;;;;;4.20;2.80;;;;;;;;;;5030511;28;20085;-59
2021/08/01 01:36:41;;;;;;;3.67;2.13;;;;;;;;;;5031454;28;20049;-59
2021/08/01 01:39:10;;;;;;;4.70;2.75;;;;;;;;;;5030936;28;20141;-59
2021/08/01 01:41:39;;;;;;;7.57;2.22;;;;;;;;;;5029962;28;20077;-59
2021/08/01 01:44:08;;;;;;;6.80;2.47;;;;;;;;;;5030485;28;20223;-59
2021/08/01 01:46:37;;;;;;;3.90;2.20;;;;;;;;;;5030581;28;20512;-60
2021/08/01 01:49:06;;;;;;;3.13;1.95;;;;;;;;;;5030088;28;20124;-59
2021/08/01 01:51:35;;;;;;;4.88;2.33;;;;;;;;;;5032724;28;20457;-59
2021/08/01 01:54:06;;;;;;;3.13;2.10;;;;;;;;;;5033856;28;20399;-59
2021/08/01 01:56:35;;;;;;;3.30;1.98;;;;;;;;;;5030653;28;20057;-59
2021/08/01 01:59:04;;;;;;;4.18;2.58;;;;;;;;;;5029936;28;20452;-59
2021/08/01 02:01:32;;;;;;;6.15;2.42;;;;;;;;;;5030571;28;20505;-59
2021/08/01 02:04:00;;;;;;;3.72;2.40;;;;;;;;;;5030357;28;20057;-59
2021/08/01 02:06:29;;;;;;;3.47;2.70;;;;;;;;;;5029573;28;20073;-59
2021/08/01 02:09:04;;;;;;;4.95;2.58;;;;;;;;;;5030248;28;20257;-59
2021/08/01 02:11:37;;;;;;;5.53;2.22;;;;;;;;;;5029805;28;20041;-59
2021/08/01 02:14:08;;;;;;;3.85;2.25;;;;;;;;;;5012292;28;20136;-59
2021/08/01 02:16:39;;;;;;;4.97;2.25;;;;;;;;;;5029942;28;20095;-60
2021/08/01 02:19:08;;;;;;;5.03;2.40;;;;;;;;;;5011097;28;20046;-59
2021/08/01 02:21:37;;;;;;;6.25;2.63;;;;;;;;;;5022460;28;20163;-59
2021/08/01 02:24:05;;;;;;;3.22;2.22;;;;;;;;;;5029354;28;20053;-59
2021/08/01 02:26:35;;;;;;;2.90;2.40;;;;;;;;;;5029893;28;20042;-60
2021/08/01 02:29:04;;;;;;;4.25;2.30;;;;;;;;;;5029715;28;20516;-59
2021/08/01 02:31:33;;;;;;;3.28;2.03;;;;;;;;;;5030038;28;20049;-59
2021/08/01 02:34:01;;;;;;;3.88;2.58;;;;;;;;;;5029339;28;20076;-59
2021/08/01 02:36:30;;;;;;;4.30;2.67;;;;;;;;;;5029621;28;20055;-59
2021/08/01 02:38:59;;;;;;;4.65;2.22;;;;;;;;;;5029962;28;20088;-59
2021/08/01 02:41:28;;;;;;;6.35;2.58;;;;;;;;;;5028705;28;20041;-59
2021/08/01 02:43:59;;;;;;;7.63;2.95;;;;;;;;;;5029573;28;20045;-59
2021/08/01 02:46:29;;;;;;;3.22;2.20;;;;;;;;;;5029737;28;20049;-59
2021/08/01 02:48:59;;;;;;;3.90;1.98;;;;;;;;;;5030165;28;20050;-59
2021/08/01 02:51:29;;;;;;;5.15;2.25;;;;;;;;;;5029249;28;20049;-59
2021/08/01 02:53:58;;;;;;;4.22;2.25;;;;;;;;;;5028351;28;20554;-59
2021/08/01 02:56:27;;;;;;;3.67;2.60;;;;;;;;;;5033020;28;20107;-59
2021/08/01 02:58:56;;;;;;;4.55;2.55;;;;;;;;;;5033727;28;20060;-59
2021/08/01 03:01:26;;;;;;;6.35;2.33;;;;;;;;;;5033612;28;20462;-59
2021/08/01 03:03:55;;;;;;;5.95;2.70;;;;;;;;;;5033444;28;20264;-59
2021/08/01 03:06:24;;;;;;;5.38;3.05;;;;;;;;;;5031061;28;20051;-59
2021/08/01 03:08:52;;;;;;;3.15;2.50;;;;;;;;;;5033348;28;20050;-59
2021/08/01 03:11:21;;;;;;;3.90;2.47;;;;;;;;;;5033745;28;20049;-59
2021/08/01 03:13:50;;;;;;;6.00;2.47;;;;;;;;;;5033008;28;20089;-59
2021/08/01 03:16:18;;;;;;;9.48;2.33;;;;;;;;;;5033022;28;20057;-60
2021/08/01 03:18:48;;;;;;;4.72;2.60;;;;;;;;;;5033686;28;20137;-59
2021/08/01 03:21:16;;;;;;;6.13;2.97;;;;;;;;;;5022202;28;20672;-59
2021/08/01 03:23:44;;;;;;;6.53;2.53;;;;;;;;;;5033096;28;20056;-59
2021/08/01 03:26:30;;;;;;;3.24;2.31;;;;;;;;;;4514075;28;10000953;-59
2021/08/01 03:28:58;;;;;;;6.18;2.78;;;;;;;;;;1381590;28;10002022;-59
2021/08/01 03:31:26;;;;;;;4.47;2.83;;;;;;;;;;5025213;28;20526;-59
2021/08/01 03:33:56;;;;;;;6.50;2.90;;;;;;;;;;5032991;28;20076;-59
2021/08/01 03:36:24;;;;;;;5.13;2.47;;;;;;;;;;5032589;28;20140;-59
2021/08/01 03:38:52;;;;;;;4.82;2.72;;;;;;;;;;5033611;28;20056;-59
2021/08/01 03:41:21;;;;;;;4.93;2.58;;;;;;;;;;5033238;28;20052;-59
2021/08/01 03:43:49;;;;;;;5.53;2.45;;;;;;;;;;5031980;28;20128;-58
2021/08/01 03:46:17;;;;;;;6.50;2.70;;;;;;;;;;5035628;28;20136;-58
2021/08/01 03:48:45;;;;;;;3.95;2.30;;;;;;;;;;5032867;28;20057;-59
2021/08/01 03:51:15;;;;;;;3.47;1.55;;;;;;;;;;5033361;28;20185;-59
2021/08/01 03:53:43;;;;;;;1.80;1.10;;;;;;;;;;5032614;28;20045;-59
2021/08/01 03:56:11;;;;;;;1.83;1.20;;;;;;;;;;5031924;28;20140;-59
2021/08/01 03:58:40;;;;;;;0.60;0.60;;;;;;;;;;5032597;28;20655;-59
2021/08/01 04:01:08;;;;;;;1.33;0.80;;;;;;;;;;5036171;28;20076;-58
2021/08/01 04:03:36;;;;;;;1.15;0.70;;;;;;;;;;5032052;28;20053;-58
2021/08/01 04:06:06;;;;;;;1.75;1.00;;;;;;;;;;5015387;28;20132;-58
2021/08/01 04:08:35;;;;;;;4.63;1.30;;;;;;;;;;5032318;28;20085;-58
2021/08/01 04:11:04;;;;;;;1.63;1.20;;;;;;;;;;5032376;28;20132;-58
2021/08/01 04:13:33;;;;;;;3.10;1.00;;;;;;;;;;5013400;28;20164;-58
2021/08/01 04:16:01;;;;;;;1.60;1.00;;;;;;;;;;5017393;28;20084;-59
2021/08/01 04:18:29;;;;;;;4.18;1.50;;;;;;;;;;5032835;28;20053;-59
2021/08/01 04:20:58;;;;;;;1.52;1.40;;;;;;;;;;5032380;28;20041;-59
2021/08/01 04:23:26;;;;;;;2.22;1.20;;;;;;;;;;5028573;28;20048;-59
2021/08/01 04:25:55;;;;;;;1.45;1.23;;;;;;;;;;5031013;28;20135;-59
2021/08/01 04:28:24;;;;;;;3.70;1.60;;;;;;;;;;5032850;28;20092;-59
2021/08/01 04:30:52;;;;;;;2.45;1.33;;;;;;;;;;5038854;28;20061;-58
2021/08/01 04:33:20;;;;;;;2.17;1.00;;;;;;;;;;5031578;28;20053;-58
2021/08/01 04:35:48;;;;;;;2.03;1.42;;;;;;;;;;5032042;28;20128;-60
2021/08/01 04:38:17;;;;;;;1.48;1.30;;;;;;;;;;5032793;28;20604;-59
2021/08/01 04:40:45;;;;;;;2.15;1.23;;;;;;;;;;5032217;28;20050;-59
2021/08/01 04:43:14;;;;;;;1.75;1.15;;;;;;;;;;5032103;28;20084;-59
2021/08/01 04:45:43;;;;;;;1.92;1.20;;;;;;;;;;5030032;28;20501;-58
2021/08/01 04:48:11;;;;;;;1.60;1.15;;;;;;;;;;5032352;28;20402;-58
2021/08/01 04:50:39;;;;;;;2.55;1.38;;;;;;;;;;5031867;28;20136;-59
2021/08/01 04:53:07;;;;;;;2.15;1.25;;;;;;;;;;5032105;28;20049;-58
2021/08/01 04:55:36;;;;;;;1.30;1.10;;;;;;;;;;5030500;28;20140;-58
2021/08/01 04:58:04;;;;;;;1.70;0.90;;;;;;;;;;5031390;28;20501;-59
2021/08/01 05:00:34;;;;;;;1.45;1.00;;;;;;;;;;5023515;28;20045;-58
2021/08/01 05:03:02;;;;;;;1.58;0.93;;;;;;;;;;5026262;28;20084;-58
2021/08/01 05:05:35;;;;;;;1.58;0.98;;;;;;;;;;5029952;28;20037;-59
2021/08/01 05:08:03;;;;;;;1.63;1.00;;;;;;;;;;5030469;28;20049;-59
2021/08/01 05:10:32;;;;;;;2.47;1.10;;;;;;;;;;5030928;28;20524;-59
2021/08/01 05:13:00;;;;;;;1.45;0.90;;;;;;;;;;5031520;28;20076;-58
2021/08/01 05:15:29;;;;;;;1.45;1.00;;;;;;;;;;5030108;28;20160;-59
2021/08/01 05:17:58;;;;;;;1.48;1.08;;;;;;;;;;5030951;28;20132;-59
2021/08/01 05:20:26;;;;;;;1.05;0.90;;;;;;;;;;5030767;28;20544;-59
2021/08/01 05:22:55;;;;;;;1.98;1.00;;;;;;;;;;5031141;28;20053;-59
2021/08/01 05:25:23;;;;;;;1.15;1.00;;;;;;;;;;5029233;28;20405;-59
2021/08/01 05:27:51;;;;;;;1.50;0.80;;;;;;;;;;5027109;28;20511;-58
2021/08/01 05:30:19;;;;;;;2.63;1.10;;;;;;;;;;5026787;28;20056;-59
2021/08/01 05:32:48;;;;;;;1.08;0.90;;;;;;;;;;5027144;28;20068;-59
2021/08/01 05:35:17;;;;;;;1.30;1.10;;;;;;;;;;5027150;28;20317;-58
2021/08/01 05:37:46;;;;;;;2.13;1.10;;;;;;;;;;5009125;28;20379;-59
2021/08/01 05:40:14;;;;;;;0.90;0.90;;;;;;;;;;5027252;28;20585;-59
2021/08/01 05:42:42;;;;;;;1.65;0.93;;;;;;;;;;5008128;28;20085;-59
2021/08/01 05:45:11;;;;;;;1.60;0.93;;;;;;;;;;5020861;28;20064;-59
2021/08/01 05:47:39;;;;;;;2.22;1.00;;;;;;;;;;5027123;28;20081;-58
2021/08/01 05:50:09;;;;;;;1.38;0.93;;;;;;;;;;5027433;28;20076;-59
2021/08/01 05:52:38;;;;;;;1.30;1.02;;;;;;;;;;5026775;28;20049;-59
2021/08/01 05:55:07;;;;;;;1.75;1.05;;;;;;;;;;5026801;28;20134;-59
2021/08/01 05:57:35;;;;;;;1.48;1.05;;;;;;;;;;5027952;28;20056;-59
2021/08/01 06:00:04;;;;;;;1.95;1.02;;;;;;;;;;5026917;28;20053;-59
2021/08/01 06:02:33;;;;;;;1.58;1.17;;;;;;;;;;5027214;28;20505;-59
2021/08/01 06:05:02;;;;;;;1.42;1.10;;;;;;;;;;5025787;28;20237;-59
2021/08/01 06:07:30;;;;;;;1.67;1.20;;;;;;;;;;5026775;28;20298;-59
2021/08/01 06:10:00;;;;;;;2.72;1.20;;;;;;;;;;5026520;28;20144;-59
2021/08/01 06:12:28;;;;;;;1.98;1.40;;;;;;;;;;5027238;28;20096;-59
2021/08/01 06:14:57;;;;;;;2.33;1.05;;;;;;;;;;5025574;28;20053;-58
2021/08/01 06:17:25;;;;;;;1.45;1.13;;;;;;;;;;5026822;28;20104;-59
2021/08/01 06:19:57;;;;;;;1.77;1.17;;;;;;;;;;5026371;28;20041;-59
2021/08/01 06:22:26;;;;;;;1.20;1.00;;;;;;;;;;5027129;28;20593;-59
2021/08/01 06:24:54;;;;;;;1.70;1.35;;;;;;;;;;5025649;28;20051;-58
2021/08/01 06:27:23;;;;;;;1.55;1.13;;;;;;;;;;5029484;28;20051;-59
2021/08/01 06:29:52;;;;;;;2.20;1.40;;;;;;;;;;5025693;28;20080;-59
2021/08/01 06:32:20;;;;;;;1.40;1.17;;;;;;;;;;5027128;28;20057;-59
2021/08/01 06:34:48;;;;;;;1.40;1.30;;;;;;;;;;5025969;28;20057;-59
2021/08/01 06:37:16;;;;;;;1.83;0.93;;;;;;;;;;5027078;28;20118;-59
2021/08/01 06:39:45;;;;;;;1.73;1.30;;;;;;;;;;5026906;28;20136;-59
2021/08/01 06:42:13;;;;;;;1.95;1.33;;;;;;;;;;5026736;28;20077;-59
2021/08/01 06:44:43;;;;;;;2.42;1.48;;;;;;;;;;5025216;28;20134;-59
2021/08/01 06:47:11;;;;;;;2.08;1.23;;;;;;;;;;5027229;28;20067;-59
2021/08/01 06:49:41;;;;;;;2.28;1.35;;;;;;;;;;5026074;28;20156;-59
2021/08/01 06:52:28;;;;;;;1.65;1.17;;;;;;;;;;5027061;28;20146;-58
2021/08/01 06:54:57;;;;;;;4.32;1.13;;;;;;;;;;5025477;28;20071;-58
2021/08/01 06:57:25;;;;;;;2.35;1.30;;;;;;;;;;5025445;28;21832;-58
2021/08/01 06:59:55;;;;;;;2.10;1.20;;;;;;;;;;5023477;28;20140;-58
2021/08/01 07:02:23;;;;;;;2.33;1.60;;;;;;;;;;5024495;28;20111;-59
2021/08/01 07:04:52;;;;;;;2.03;1.65;;;;;;;;;;5025908;28;20393;-59
2021/08/01 07:07:20;;;;;;;3.22;1.75;;;;;;;;;;5025759;28;20553;-59
2021/08/01 07:09:48;;;;;;;1.92;1.50;;;;;;;;;;5026158;28;20053;-59
2021/08/01 07:12:17;;;;;;;3.03;1.52;;;;;;;;;;5024875;28;20132;-58
2021/08/01 07:14:47;;;;;;;3.00;1.77;;;;;;;;;;5015497;28;20347;-60
2021/08/01 07:17:20;;;;;;;4.78;1.70;;;;;;;;;;5026113;28;20046;-59
2021/08/01 07:19:49;;;;;;;4.00;1.63;;;;;;;;;;5014565;28;20128;-59
2021/08/01 07:22:17;;;;;;;1.70;1.40;;;;;;;;;;5013965;28;20136;-58
2021/08/01 07:24:46;;;;;;;2.17;1.65;;;;;;;;;;5025792;28;20049;-58
2021/08/01 07:27:18;;;;;;;2.92;1.83;;;;;;;;;;5027484;28;20046;-59
2021/08/01 07:29:46;;;;;;;2.15;1.60;;;;;;;;;;5026748;28;20053;-58
2021/08/01 07:32:15;;;;;;;3.38;1.73;;;;;;;;;;5027815;28;20109;-59
2021/08/01 07:34:44;;;;;;;1.95;1.40;;;;;;;;;;5026546;28;20113;-59
2021/08/01 07:37:12;;;;;;;2.22;1.50;;;;;;;;;;5026753;28;20164;-58
2021/08/01 07:39:42;;;;;;;4.03;1.70;;;;;;;;;;5007157;28;20610;-59
2021/08/01 07:42:11;;;;;;;2.40;1.70;;;;;;;;;;5026490;28;20084;-58
2021/08/01 07:44:47;;;;;;;5.85;1.70;;;;;;;;;;5030432;28;20053;-58
2021/08/01 07:47:16;;;;;;;8.30;1.70;;;;;;;;;;5030881;28;20093;-58
2021/08/01 07:49:47;;;;;;;3.72;1.90;;;;;;;;;;5031150;28;20053;-59
2021/08/01 07:52:16;;;;;;;2.45;1.60;;;;;;;;;;5030990;28;20121;-58
2021/08/01 07:54:44;;;;;;;1.77;1.40;;;;;;;;;;5030114;28;20148;-59
2021/08/01 07:57:23;;;;;;;2.70;1.85;;;;;;;;;;5037853;28;20131;-58
2021/08/01 07:59:51;;;;;;;2.20;1.63;;;;;;;;;;5029912;28;20056;-59
2021/08/01 08:02:19;;;;;;;3.03;1.77;;;;;;;;;;5022594;28;20128;-58
2021/08/01 08:04:49;;;;;;;2.70;1.92;;;;;;;;;;5028821;28;20049;-58
2021/08/01 08:07:18;;;;;;;4.53;2.00;;;;;;;;;;5030416;28;20057;-58
2021/08/01 08:09:46;;;;;;;3.25;1.80;;;;;;;;;;5029524;28;20091;-58
2021/08/01 08:12:15;;;;;;;2.58;1.70;;;;;;;;;;5029344;28;20046;-58
2021/08/01 08:14:43;;;;;;;2.60;1.70;;;;;;;;;;5029246;28;20129;-58
2021/08/01 08:17:12;;;;;;;4.10;1.90;;;;;;;;;;5029168;28;20058;-59
2021/08/01 08:19:40;;;;;;;4.32;1.98;;;;;;;;;;5028568;28;20075;-58
2021/08/01 08:22:10;;;;;;;2.88;2.05;;;;;;;;;;5029338;28;20123;-58
2021/08/01 08:24:39;;;;;;;2.55;1.73;;;;;;;;;;5039350;28;20507;-59
2021/08/01 08:27:07;;;;;;;4.20;1.95;;;;;;;;;;5033101;28;20132;-59
2021/08/01 08:29:35;;;;;;;5.03;2.10;;;;;;;;;;5029445;28;20080;-58
2021/08/01 08:32:04;;;;;;;2.75;1.75;;;;;;;;;;5029284;28;20085;-58
2021/08/01 08:34:32;;;;;;;3.00;1.88;;;;;;;;;;5028620;28;20041;-59
2021/08/01 08:37:01;;;;;;;3.45;2.00;;;;;;;;;;5029164;28;20049;-59
2021/08/01 08:39:30;;;;;;;3.67;1.77;;;;;;;;;;5025557;28;20118;-58
2021/08/01 08:42:00;;;;;;;2.25;1.70;;;;;;;;;;5028562;28;20144;-59
2021/08/01 08:44:28;;;;;;;3.30;2.00;;;;;;;;;;5029062;28;20041;-59
2021/08/01 08:46:57;;;;;;;2.30;1.75;;;;;;;;;;5029329;28;20072;-59
2021/08/01 08:49:27;;;;;;;2.47;1.42;;;;;;;;;;5029033;28;20397;-58
2021/08/01 08:51:57;;;;;;;4.68;1.88;;;;;;;;;;5028416;28;20056;-60
2021/08/01 08:54:31;;;;;;;4.50;1.70;;;;;;;;;;5028978;28;20462;-60
2021/08/01 08:57:01;;;;;;;4.18;2.30;;;;;;;;;;5029813;28;20172;-59
2021/08/01 08:59:30;;;;;;;3.80;2.03;;;;;;;;;;5025691;28;20080;-59
2021/08/01 09:01:58;;;;;;;4.55;2.03;;;;;;;;;;5031965;28;20413;-59
2021/08/01 09:04:26;;;;;;;3.25;2.17;;;;;;;;;;5007782;28;20057;-59
2021/08/01 09:06:57;;;;;;;2.05;1.70;;;;;;;;;;5009054;28;20355;-59
2021/08/01 09:09:25;;;;;;;1.65;1.33;;;;;;;;;;5009445;28;20215;-60
2021/08/01 09:11:54;;;;;;;5.68;1.88;;;;;;;;;;5008409;28;20081;-60
2021/08/01 09:14:23;;;;;;;2.75;1.60;;;;;;;;;;5009176;28;20599;-59
2021/08/01 09:16:52;;;;;;;5.50;1.70;;;;;;;;;;5009452;28;20058;-60
2021/08/01 09:19:25;;;;;;;3.72;2.08;;;;;;;;;;5009516;28;20163;-59
2021/08/01 09:21:54;;;;;;;4.32;1.83;;;;;;;;;;5009287;28;20056;-59
2021/08/01 09:24:22;;;;;;;2.85;1.70;;;;;;;;;;5007926;28;20656;-59
2021/08/01 09:26:51;;;;;;;3.75;1.92;;;;;;;;;;5008307;28;20529;-60
2021/08/01 09:29:21;;;;;;;2.20;1.45;;;;;;;;;;5008884;28;20116;-60
2021/08/01 09:31:58;;;;;;;4.22;1.85;;;;;;;;;;5008471;28;20052;-60
2021/08/01 09:34:27;;;;;;;2.90;1.77;;;;;;;;;;5008445;28;20128;-60
2021/08/01 09:36:56;;;;;;;3.85;1.80;;;;;;;;;;5017469;28;20366;-59
2021/08/01 09:39:24;;;;;;;2.88;1.25;;;;;;;;;;5008662;28;20096;-59
2021/08/01 09:42:00;;;;;;;2.13;1.58;;;;;;;;;;5000091;28;20500;-59
2021/08/01 09:44:28;;;;;;;3.75;1.70;;;;;;;;;;5007883;28;20050;-60
2021/08/01 09:46:58;;;;;;;3.03;1.73;;;;;;;;;;5007916;28;20081;-60
2021/08/01 09:49:28;;;;;;;3.03;1.67;;;;;;;;;;5008794;28;20052;-60
2021/08/01 09:51:58;;;;;;;2.55;1.40;;;;;;;;;;5008336;28;20490;-59
2021/08/01 09:54:27;;;;;;;2.55;1.50;;;;;;;;;;5008436;28;20108;-59
2021/08/01 09:56:57;;;;;;;4.05;1.65;;;;;;;;;;5007356;28;20054;-59
2021/08/01 09:59:26;;;;;;;2.35;1.75;;;;;;;;;;5009516;28;20081;-59
2021/08/01 10:01:55;;;;;;;2.08;1.50;;;;;;;;;;5008142;28;20409;-59
2021/08/01 10:04:26;;;;;;;3.60;1.80;;;;;;;;;;5028345;28;20041;-60
2021/08/01 10:07:04;;;;;;;1.77;1.45;;;;;;;;;;5026912;28;20139;-59
2021/08/01 10:09:33;;;;;;;1.77;1.30;;;;;;;;;;5026974;28;20133;-59
2021/08/01 10:12:02;;;;;;;2.03;1.50;;;;;;;;;;5026436;28;20559;-59
2021/08/01 10:14:31;;;;;;;2.20;1.60;;;;;;;;;;5026685;28;20049;-59
2021/08/01 10:16:59;;;;;;;4.15;1.63;;;;;;;;;;5030122;28;20052;-59
2021/08/01 10:19:29;;;;;;;3.78;1.70;;;;;;;;;;5026059;28;20502;-60
2021/08/01 10:21:58;;;;;;;2.70;1.33;;;;;;;;;;5023744;28;20128;-60
2021/08/01 10:24:27;;;;;;;4.80;1.48;;;;;;;;;;5026313;28;20077;-59
2021/08/01 10:26:56;;;;;;;6.15;1.60;;;;;;;;;;5027361;28;20136;-59
2021/08/01 10:29:28;;;;;;;5.35;2.30;;;;;;;;;;5022437;28;20156;-60
2021/08/01 10:31:59;;;;;;;5.72;1.58;;;;;;;;;;5041115;28;20408;-59
2021/08/01 10:34:35;;;;;;;3.95;1.73;;;;;;;;;;5040051;28;20449;-59
2021/08/01 10:37:06;;;;;;;3.55;1.80;;;;;;;;;;5025671;28;20444;-59
2021/08/01 10:39:35;;;;;;;2.50;1.70;;;;;;;;;;5039089;28;20052;-60
2021/08/01 10:42:07;;;;;;;6.00;1.98;;;;;;;;;;5025549;28;20132;-59
2021/08/01 10:44:36;;;;;;;7.00;1.90;;;;;;;;;;5023942;28;20457;-60
2021/08/01 10:47:09;;;;;;;3.80;1.80;;;;;;;;;;5019991;28;20099;-59
2021/08/01 10:49:40;;;;;;;2.50;1.73;;;;;;;;;;5030363;28;20050;-59
2021/08/01 10:52:10;;;;;;;2.65;1.70;;;;;;;;;;5033123;28;20150;-60
2021/08/01 10:54:39;;;;;;;1.90;1.33;;;;;;;;;;5028069;28;20140;-59
2021/08/01 10:57:14;;;;;;;4.57;1.63;;;;;;;;;;5026320;28;20053;-60
2021/08/01 11:00:04;;;;;;;5.35;2.15;;;;;;;;;;5025929;28;20049;-59
2021/08/01 11:02:33;;;;;;;2.38;1.45;;;;;;;;;;5022859;28;20064;-59
2021/08/01 11:05:23;;;;;;;2.70;1.52;;;;;;;;;;5029609;28;20680;-59
2021/08/01 11:08:06;;;;;;;2.47;1.45;;;;;;;;;;5031515;28;20045;-59
2021/08/01 11:10:35;;;;;;;2.35;1.58;;;;;;;;;;5029689;28;20049;-59
2021/08/01 11:13:18;;;;;;;4.15;1.70;;;;;;;;;;5036880;28;20045;-59
2021/08/01 11:15:48;;;;;;;4.20;1.67;;;;;;;;;;5032080;28;20149;-59
2021/08/01 11:18:16;;;;;;;4.30;1.70;;;;;;;;;;5031846;28;20457;-60
2021/08/01 11:20:52;;;;;;;3.47;1.60;;;;;;;;;;5034295;28;20080;-59
2021/08/01 11:23:22;;;;;;;5.65;1.75;;;;;;;;;;5036458;28;20583;-60
2021/08/01 11:26:07;;;;;;;3.28;1.77;;;;;;;;;;5032594;28;20460;-60
2021/08/01 11:28:36;;;;;;;3.70;1.75;;;;;;;;;;5033141;28;20462;-60
2021/08/01 11:31:08;;;;;;;3.65;2.05;;;;;;;;;;5034786;28;20061;-59
2021/08/01 11:33:38;;;;;;;2.70;1.70;;;;;;;;;;5040845;28;20072;-60
2021/08/01 11:36:23;;;;;;;3.28;1.70;;;;;;;;;;5037424;28;20099;-60
2021/08/01 11:39:03;;;;;;;2.43;1.80;;;;;;;;;;5024507;28;20280;-59
2021/08/01 11:41:39;;;;;;;2.67;1.70;;;;;;;;;;5030319;28;20401;-59
2021/08/01 11:44:11;;;;;;;2.67;1.50;;;;;;;;;;5027207;28;20045;-59
2021/08/01 11:47:09;;;;;;;3.60;1.83;;;;;;;;;;5026662;28;20041;-60
2021/08/01 11:49:48;;;;;;;2.70;1.80;;;;;;;;;;5029368;28;20056;-60
2021/08/01 11:52:21;;;;;;;3.67;1.95;;;;;;;;;;5036359;28;20080;-60
2021/08/01 11:54:55;;;;;;;2.50;1.70;;;;;;;;;;5024740;28;20140;-61
2021/08/01 11:57:29;;;;;;;2.40;1.70;;;;;;;;;;5032023;28;20398;-60
2021/08/01 11:59:58;;;;;;;3.83;1.77;;;;;;;;;;5033165;28;20057;-60
2021/08/01 12:02:27;;;;;;;3.15;1.58;;;;;;;;;;5036858;28;20087;-60
2021/08/01 12:04:56;;;;;;;4.97;2.10;;;;;;;;;;5037727;28;20640;-60
2021/08/01 12:07:39;;;;;;;2.50;1.40;;;;;;;;;;5041108;28;20071;-59
2021/08/01 12:10:28;;;;;;;2.03;1.40;;;;;;;;;;5031434;28;20144;-60
2021/08/01 12:12:59;;;;;;;1.83;1.50;;;;;;;;;;5016424;28;20080;-60
2021/08/01 12:15:27;;;;;;;2.90;1.52;;;;;;;;;;5046126;28;20088;-60
2021/08/01 12:17:56;;;;;;;4.38;1.48;;;;;;;;;;5043862;28;20084;-60
2021/08/01 12:20:32;;;;;;;4.00;1.83;;;;;;;;;;5049917;28;20045;-60
2021/08/01 12:23:05;;;;;;;3.25;1.83;;;;;;;;;;5037414;28;20037;-59
2021/08/01 12:25:33;;;;;;;2.13;1.33;;;;;;;;;;5037479;28;20437;-59
2021/08/01 12:28:03;;;;;;;2.38;1.27;;;;;;;;;;5036054;28;20081;-59
2021/08/01 12:30:31;;;;;;;2.55;1.40;;;;;;;;;;5027116;28;20152;-60
2021/08/01 12:33:00;;;;;;;3.95;1.77;;;;;;;;;;5042423;28;20750;-59
2021/08/01 12:35:29;;;;;;;1.75;1.30;;;;;;;;;;5028001;28;20061;-59
2021/08/01 12:37:59;;;;;;;3.28;1.55;;;;;;;;;;5027749;28;20406;-59
2021/08/01 12:40:30;;;;;;;2.42;1.77;;;;;;;;;;5036979;28;20049;-60
2021/08/01 12:42:58;;;;;;;3.55;1.67;;;;;;;;;;5032818;28;20708;-59
2021/08/01 12:45:36;;;;;;;3.75;1.55;;;;;;;;;;5022938;28;20050;-58
2021/08/01 12:48:05;;;;;;;1.90;1.30;;;;;;;;;;5023033;28;20132;-59
2021/08/01 12:50:34;;;;;;;2.40;1.63;;;;;;;;;;5038996;28;20056;-59
2021/08/01 12:53:04;;;;;;;2.45;1.40;;;;;;;;;;5039212;28;20136;-59
2021/08/01 12:55:32;;;;;;;3.95;1.55;;;;;;;;;;5033366;28;20088;-59
2021/08/01 12:58:01;;;;;;;2.60;1.55;;;;;;;;;;5016591;28;20083;-58
2021/08/01 13:00:30;;;;;;;2.72;1.20;;;;;;;;;;5030069;28;20081;-58
2021/08/01 13:03:01;;;;;;;4.00;1.80;;;;;;;;;;5040731;28;20065;-59
2021/08/01 13:05:30;;;;;;;2.58;1.40;;;;;;;;;;5027442;28;20046;-58
2021/08/01 13:07:59;;;;;;;3.75;2.03;;;;;;;;;;5031926;28;20132;-58
2021/08/01 13:10:29;;;;;;;1.73;1.30;;;;;;;;;;5026486;28;20157;-56
2021/08/01 13:13:08;;;;;;;1.83;1.65;;;;;;;;;;5026348;28;20046;-58
2021/08/01 13:15:37;;;;;;;1.95;1.50;;;;;;;;;;5019793;28;20080;-58
2021/08/01 13:18:08;;;;;;;2.05;1.42;;;;;;;;;;5038247;28;20053;-58
2021/08/01 13:20:38;;;;;;;3.45;1.70;;;;;;;;;;5037318;28;20136;-58
2021/08/01 13:23:25;;;;;;;1.83;1.20;;;;;;;;;;5029711;28;20045;-58
2021/08/01 13:25:53;;;;;;;2.20;1.40;;;;;;;;;;5037128;28;20052;-57
2021/08/01 13:28:36;;;;;;;3.50;1.63;;;;;;;;;;5029228;28;20136;-58
2021/08/01 13:31:05;;;;;;;2.40;1.50;;;;;;;;;;5043154;28;20644;-58
2021/08/01 13:33:35;;;;;;;2.47;1.50;;;;;;;;;;5038505;28;20129;-57
2021/08/01 13:36:03;;;;;;;2.55;1.70;;;;;;;;;;5023651;28;20056;-56
2021/08/01 13:38:32;;;;;;;2.95;1.75;;;;;;;;;;5027435;28;20138;-58
2021/08/01 13:41:00;;;;;;;3.08;1.80;;;;;;;;;;5035228;28;20136;-57
2021/08/01 13:43:28;;;;;;;3.85;1.50;;;;;;;;;;5022771;28;20049;-58
2021/08/01 13:46:16;;;;;;;3.08;1.90;;;;;;;;;;5028571;28;20140;-58
2021/08/01 13:48:46;;;;;;;3.22;1.58;;;;;;;;;;5026877;28;20088;-58
2021/08/01 13:51:14;;;;;;;2.85;1.73;;;;;;;;;;5043388;28;20053;-58
2021/08/01 13:53:42;;;;;;;2.67;1.75;;;;;;;;;;5033453;28;20124;-57
2021/08/01 13:56:11;;;;;;;2.42;1.35;;;;;;;;;;5041757;28;20511;-58
2021/08/01 13:58:39;;;;;;;4.05;2.03;;;;;;;;;;5028232;28;20533;-57
2021/08/01 14:01:07;;;;;;;3.00;1.92;;;;;;;;;;5035346;28;20060;-57
2021/08/01 14:03:38;;;;;;;3.45;1.95;;;;;;;;;;5031747;28;20132;-58
2021/08/01 14:06:08;;;;;;;4.72;1.98;;;;;;;;;;5028285;28;20057;-57
2021/08/01 14:08:37;;;;;;;2.50;1.60;;;;;;;;;;5025744;28;20176;-59
2021/08/01 14:11:05;;;;;;;4.47;1.50;;;;;;;;;;5040215;28;20147;-58
2021/08/01 14:13:34;;;;;;;4.65;2.25;;;;;;;;;;5037778;28;20067;-58
2021/08/01 14:16:02;;;;;;;3.65;1.58;;;;;;;;;;5034722;28;20116;-58
2021/08/01 14:18:31;;;;;;;2.60;1.60;;;;;;;;;;5046136;28;20140;-58
2021/08/01 14:20:59;;;;;;;5.90;1.88;;;;;;;;;;5041363;28;20092;-58
2021/08/01 14:23:28;;;;;;;2.78;1.70;;;;;;;;;;5028563;28;20505;-58
2021/08/01 14:25:57;;;;;;;5.82;1.92;;;;;;;;;;5025353;28;20085;-58
2021/08/01 14:28:26;;;;;;;5.75;1.90;;;;;;;;;;5031631;28;20076;-58
2021/08/01 14:30:55;;;;;;;3.40;2.17;;;;;;;;;;5038959;28;20122;-58
2021/08/01 14:33:25;;;;;;;5.90;2.00;;;;;;;;;;5045884;28;20498;-58
2021/08/01 14:35:55;;;;;;;6.30;2.35;;;;;;;;;;5024058;28;20053;-58
2021/08/01 14:38:24;;;;;;;3.90;2.05;;;;;;;;;;5045604;28;20572;-58
2021/08/01 14:40:54;;;;;;;2.95;1.60;;;;;;;;;;5041482;28;20076;-59
2021/08/01 14:43:22;;;;;;;4.20;1.85;;;;;;;;;;5024108;28;20053;-58
2021/08/01 14:45:51;;;;;;;2.30;1.38;;;;;;;;;;5033527;28;20647;-59
2021/08/01 14:48:22;;;;;;;2.55;1.52;;;;;;;;;;5033151;28;20393;-58
2021/08/01 14:50:52;;;;;;;5.78;1.75;;;;;;;;;;5038262;28;20072;-57
2021/08/01 14:53:20;;;;;;;4.22;1.65;;;;;;;;;;5044223;28;20052;-59
2021/08/01 14:55:49;;;;;;;4.18;1.83;;;;;;;;;;5047765;28;20461;-59
2021/08/01 14:58:23;;;;;;;2.65;1.85;;;;;;;;;;5048499;28;20084;-58
2021/08/01 15:00:52;;;;;;;2.80;1.60;;;;;;;;;;5049319;28;20053;-59